createdAt,value
2019-04-07T00:01:22.074Z,5.43
2019-04-07T00:03:48.455Z,5.87
2019-04-07T00:06:14.914Z,4.77
2019-04-07T00:08:41.434Z,7.37
2019-04-07T00:11:08.376Z,10.03
2019-04-07T00:13:34.732Z,8.17
2019-04-07T00:16:01.354Z,8.20
2019-04-07T00:18:28.644Z,8.40
2019-04-07T00:20:55.229Z,7.83
2019-04-07T00:23:21.551Z,6.97
2019-04-07T00:25:48.921Z,7.60
2019-04-07T00:28:15.361Z,7.90
2019-04-07T00:30:42.507Z,8.53
2019-04-07T00:33:09.128Z,8.87
2019-04-07T00:35:35.443Z,9.63
2019-04-07T00:38:02.221Z,8.57
2019-04-07T00:40:29.456Z,7.27
2019-04-07T00:42:55.835Z,6.97
2019-04-07T00:45:22.106Z,8.33
2019-04-07T00:47:48.362Z,5.90
2019-04-07T00:50:15.311Z,6.50
2019-04-07T00:52:41.846Z,5.37
2019-04-07T00:55:08.865Z,4.93
2019-04-07T00:57:35.392Z,4.70
2019-04-07T01:00:02.657Z,4.33
2019-04-07T01:02:29.271Z,3.50
2019-04-07T01:04:56.148Z,4.23
2019-04-07T01:07:22.651Z,3.33
2019-04-07T01:09:49.376Z,4.87
2019-04-07T01:12:15.995Z,5.50
2019-04-07T01:14:44.129Z,4.50
2019-04-07T01:17:11.577Z,4.43
2019-04-07T01:19:38.116Z,4.50
2019-04-07T01:22:04.466Z,3.87
2019-04-07T01:24:30.806Z,3.83
2019-04-07T01:26:58.912Z,3.90
2019-04-07T01:29:25.524Z,3.67
2019-04-07T01:31:51.922Z,3.37
2019-04-07T01:34:18.474Z,4.30
2019-04-07T01:36:45.471Z,3.73
2019-04-07T01:39:11.991Z,3.90
2019-04-07T01:41:43.066Z,4.40
2019-04-07T01:44:14.417Z,4.13
2019-04-07T01:46:48.241Z,4.23
2019-04-07T01:49:16.472Z,4.00
2019-04-07T01:51:45.415Z,3.60
2019-04-07T01:54:19.943Z,3.90
2019-04-07T01:56:54.562Z,3.67
2019-04-07T01:59:32.015Z,4.60
2019-04-07T02:02:09.509Z,3.87
2019-04-07T02:04:40.544Z,3.80
2019-04-07T02:07:25.594Z,5.10
2019-04-07T02:09:59.834Z,3.30
2019-04-07T02:12:40.163Z,3.33
2019-04-07T02:15:09.707Z,4.53
2019-04-07T02:17:38.214Z,5.10
2019-04-07T02:20:12.981Z,4.67
2019-04-07T02:22:46.546Z,4.43
2019-04-07T02:25:17.363Z,4.90
2019-04-07T02:27:52.067Z,3.80
2019-04-07T02:30:26.464Z,3.77
2019-04-07T02:33:10.553Z,4.00
2019-04-07T02:35:51.150Z,3.53
2019-04-07T02:38:31.655Z,5.37
2019-04-07T02:41:00.044Z,4.47
2019-04-07T02:43:28.274Z,3.67
2019-04-07T02:46:05.888Z,4.60
2019-04-07T02:48:43.058Z,5.47
2019-04-07T02:51:24.317Z,5.53
2019-04-07T02:53:59.396Z,5.90
2019-04-07T02:56:37.103Z,5.97
2019-04-07T02:59:08.114Z,8.73
2019-04-07T03:01:43.413Z,7.47
2019-04-07T03:04:24.458Z,10.17
2019-04-07T03:06:53.569Z,9.67
2019-04-07T03:09:28.867Z,8.20
2019-04-07T03:12:13.757Z,6.80
2019-04-07T03:14:56.112Z,6.00
2019-04-07T03:17:27.448Z,5.23
2019-04-07T03:19:56.222Z,4.30
2019-04-07T03:22:24.484Z,4.50
2019-04-07T03:24:56.883Z,4.27
2019-04-07T03:27:38.145Z,4.27
2019-04-07T03:30:20.793Z,3.80
2019-04-07T03:33:10.437Z,4.00
2019-04-07T03:35:41.148Z,5.27
2019-04-07T03:38:19.023Z,7.83
2019-04-07T03:41:03.322Z,8.00
2019-04-07T03:43:50.902Z,11.03
2019-04-07T03:46:26.773Z,7.90
2019-04-07T03:48:55.480Z,7.97
2019-04-07T03:51:30.148Z,6.27
2019-04-07T03:54:00.487Z,6.17
2019-04-07T03:56:31.902Z,5.97
2019-04-07T03:59:03.449Z,4.80
2019-04-07T04:01:49.517Z,4.50
2019-04-07T04:04:32.797Z,4.57
2019-04-07T04:07:18.035Z,4.83
2019-04-07T04:09:38.377Z,5.80
2019-04-07T04:12:18.432Z,6.00
2019-04-07T04:14:59.855Z,7.10
2019-04-07T04:17:27.134Z,7.40
2019-04-07T04:19:54.052Z,7.00
2019-04-07T04:22:21.062Z,6.27
2019-04-07T04:24:49.972Z,7.07
2019-04-07T04:27:16.980Z,7.60
2019-04-07T04:29:44.554Z,9.93
2019-04-07T04:32:11.129Z,13.90
2019-04-07T04:34:37.750Z,13.40
2019-04-07T04:37:04.091Z,10.00
2019-04-07T04:39:31.415Z,9.63
2019-04-07T04:41:57.866Z,9.80
2019-04-07T04:44:24.231Z,8.20
2019-04-07T04:46:50.886Z,9.10
2019-04-07T04:49:17.177Z,10.13
2019-04-07T04:51:44.318Z,7.90
2019-04-07T04:54:11.081Z,7.67
2019-04-07T04:56:37.515Z,6.17
2019-04-07T04:59:04.179Z,5.80
2019-04-07T05:01:31.033Z,6.10
2019-04-07T05:03:57.439Z,5.63
2019-04-07T05:06:24.267Z,5.17
2019-04-07T05:08:51.156Z,7.13
2019-04-07T05:11:17.587Z,7.10
2019-04-07T05:13:43.922Z,6.97
2019-04-07T05:16:10.617Z,6.77
2019-04-07T05:18:37.154Z,6.20
2019-04-07T05:21:04.245Z,6.60
2019-04-07T05:23:30.684Z,5.03
2019-04-07T05:25:57.021Z,7.30
2019-04-07T05:28:23.263Z,5.70
2019-04-07T05:30:50.132Z,7.83
2019-04-07T05:33:16.590Z,8.10
2019-04-07T05:35:42.957Z,6.63
2019-04-07T05:38:09.615Z,7.33
2019-04-07T05:40:36.594Z,6.80
2019-04-07T05:43:03.130Z,5.60
2019-04-07T05:45:29.478Z,5.50
2019-04-07T05:47:55.755Z,4.97
2019-04-07T05:50:22.293Z,6.23
2019-04-07T05:52:48.856Z,7.30
2019-04-07T05:55:15.260Z,6.77
2019-04-07T05:57:42.137Z,6.50
2019-04-07T06:00:14.235Z,7.57
2019-04-07T06:02:39.217Z,8.73
2019-04-07T06:05:06.507Z,7.63
2019-04-07T06:07:35.660Z,8.47
2019-04-07T06:10:02.293Z,8.43
2019-04-07T06:12:30.729Z,7.97
2019-04-07T06:14:57.297Z,8.00
2019-04-07T06:17:26.377Z,6.57
2019-04-07T06:19:53.859Z,7.30
2019-04-07T06:22:21.029Z,8.83
2019-04-07T06:24:48.763Z,9.47
2019-04-07T06:27:16.990Z,9.00
2019-04-07T06:29:43.466Z,7.97
2019-04-07T06:32:11.139Z,11.30
2019-04-07T06:34:41.052Z,18.13
2019-04-07T06:37:06.761Z,22.97
2019-04-07T06:39:34.026Z,18.97
2019-04-07T06:42:01.545Z,14.37
2019-04-07T06:44:29.046Z,12.60
2019-04-07T06:47:06.553Z,11.00
2019-04-07T06:49:46.333Z,8.07
2019-04-07T06:52:24.793Z,7.30
2019-04-07T06:55:09.856Z,6.90
2019-04-07T06:57:53.778Z,6.40
2019-04-07T07:00:34.276Z,5.47
2019-04-07T07:03:04.330Z,5.87
2019-04-07T07:05:34.949Z,5.83
2019-04-07T07:08:10.039Z,5.83
2019-04-07T07:10:50.565Z,7.07
2019-04-07T07:13:28.473Z,6.17
2019-04-07T07:15:51.976Z,6.00
2019-04-07T07:18:24.100Z,5.67
2019-04-07T07:21:03.126Z,5.33
2019-04-07T07:23:34.962Z,4.87
2019-04-07T07:26:03.149Z,4.60
2019-04-07T07:28:29.570Z,4.43
2019-04-07T07:30:55.971Z,4.60
2019-04-07T07:33:22.384Z,4.77
2019-04-07T07:35:49.300Z,16.47
2019-04-07T07:38:15.664Z,6.23
2019-04-07T07:40:42.567Z,4.40
2019-04-07T07:43:09.707Z,4.00
2019-04-07T07:45:37.162Z,4.53
2019-04-07T07:48:04.193Z,3.83
2019-04-07T07:50:30.524Z,3.63
2019-04-07T07:52:57.125Z,3.57
2019-04-07T07:55:23.785Z,4.13
2019-04-07T07:57:54.155Z,3.87
2019-04-07T08:00:19.837Z,4.77
2019-04-07T08:02:48.893Z,4.03
2019-04-07T08:05:14.813Z,3.57
2019-04-07T08:07:45.708Z,3.10
2019-04-07T08:10:09.938Z,2.73
2019-04-07T08:12:36.313Z,2.30
2019-04-07T08:15:04.899Z,2.67
2019-04-07T08:17:33.148Z,2.53
2019-04-07T08:19:59.956Z,2.97
2019-04-07T08:22:32.518Z,2.60
2019-04-07T08:24:54.605Z,2.17
2019-04-07T08:27:21.655Z,2.30
2019-04-07T08:29:48.553Z,2.50
2019-04-07T08:32:14.834Z,2.63
2019-04-07T08:34:41.544Z,2.00
2019-04-07T08:37:08.398Z,2.53
2019-04-07T08:39:36.100Z,2.60
2019-04-07T08:42:07.689Z,2.60
2019-04-07T08:44:31.570Z,2.97
2019-04-07T08:46:58.922Z,2.60
2019-04-07T08:49:26.529Z,2.63
2019-04-07T08:51:53.862Z,2.40
2019-04-07T08:54:20.293Z,2.20
2019-04-07T08:56:46.933Z,2.23
2019-04-07T08:59:16.959Z,2.40
2019-04-07T09:01:41.709Z,1.93
2019-04-07T09:04:09.347Z,2.27
2019-04-07T09:06:36.011Z,2.43
2019-04-07T09:09:07.785Z,1.90
2019-04-07T09:11:34.618Z,1.93
2019-04-07T09:14:00.922Z,2.20
2019-04-07T09:16:30.234Z,2.07
2019-04-07T09:19:04.914Z,1.87
2019-04-07T09:21:47.565Z,2.43
2019-04-07T09:24:19.589Z,2.63
2019-04-07T09:26:53.508Z,2.33
2019-04-07T09:29:30.004Z,2.60
2019-04-07T09:32:04.507Z,2.17
2019-04-07T09:34:35.613Z,2.43
2019-04-07T09:37:23.381Z,2.53
2019-04-07T09:39:59.548Z,2.83
2019-04-07T09:42:30.922Z,2.77
2019-04-07T09:44:59.074Z,2.70
2019-04-07T09:47:43.096Z,2.80
2019-04-07T09:50:29.826Z,2.77
2019-04-07T09:52:57.988Z,2.77
2019-04-07T09:55:35.489Z,2.80
2019-04-07T09:58:08.055Z,2.70
2019-04-07T10:00:36.771Z,2.40
2019-04-07T10:03:12.713Z,2.70
2019-04-07T10:05:40.265Z,2.33
2019-04-07T10:08:11.972Z,2.50
2019-04-07T10:10:39.862Z,2.73
2019-04-07T10:13:11.350Z,2.73
2019-04-07T10:15:56.426Z,2.73
2019-04-07T10:18:25.208Z,2.83
2019-04-07T10:21:10.101Z,2.90
2019-04-07T10:23:55.261Z,2.50
2019-04-07T10:26:33.635Z,2.50
2019-04-07T10:29:14.291Z,2.73
2019-04-07T10:31:57.682Z,3.30
2019-04-07T10:34:28.941Z,2.80
2019-04-07T10:37:02.664Z,3.20
2019-04-07T10:39:36.874Z,2.90
2019-04-07T10:42:05.466Z,2.67
2019-04-07T10:44:37.777Z,3.20
2019-04-07T10:47:07.133Z,2.80
2019-04-07T10:49:36.222Z,2.50
2019-04-07T10:52:07.243Z,2.93
2019-04-07T10:54:35.473Z,2.87
2019-04-07T10:57:04.914Z,2.63
2019-04-07T10:59:42.549Z,2.93
2019-04-07T11:02:27.612Z,2.63
2019-04-07T11:05:02.911Z,2.80
2019-04-07T11:07:31.674Z,3.10
2019-04-07T11:10:01.183Z,2.80
2019-04-07T11:12:32.614Z,2.83
2019-04-07T11:15:13.784Z,3.00
2019-04-07T11:17:42.062Z,2.63
2019-04-07T11:20:11.443Z,2.67
2019-04-07T11:22:52.091Z,2.67
2019-04-07T11:25:29.543Z,2.63
2019-04-07T11:28:14.745Z,3.03
2019-04-07T11:30:49.687Z,2.77
2019-04-07T11:33:36.213Z,3.20
2019-04-07T11:36:05.932Z,2.60
2019-04-07T11:38:34.346Z,3.17
2019-04-07T11:41:05.851Z,2.97
2019-04-07T11:43:42.879Z,2.80
2019-04-07T11:46:27.137Z,2.60
2019-04-07T11:49:10.758Z,3.07
2019-04-07T11:51:37.969Z,2.80
2019-04-07T11:54:06.481Z,3.07
2019-04-07T11:56:38.213Z,3.33
2019-04-07T11:59:08.652Z,2.93
2019-04-07T12:01:43.700Z,3.30
2019-04-07T12:04:26.949Z,2.90
2019-04-07T12:07:12.803Z,2.98
2019-04-07T12:09:42.083Z,2.80
2019-04-07T12:12:11.443Z,3.12
2019-04-07T12:14:56.585Z,2.60
2019-04-07T12:17:42.088Z,2.98
2019-04-07T12:20:12.472Z,3.27
2019-04-07T12:22:42.606Z,2.52
2019-04-07T12:25:15.710Z,2.55
2019-04-07T12:27:49.093Z,7.35
2019-04-07T12:30:22.523Z,3.15
2019-04-07T12:32:52.585Z,3.05
2019-04-07T12:35:39.807Z,2.80
2019-04-07T12:38:20.881Z,3.30
2019-04-07T12:41:13.364Z,3.05
2019-04-07T12:43:49.575Z,3.65
2019-04-07T12:46:21.099Z,2.85
2019-04-07T12:48:50.035Z,3.37
2019-04-07T12:51:22.314Z,3.00
2019-04-07T12:53:56.399Z,3.80
2019-04-07T12:56:39.520Z,3.80
2019-04-07T12:59:07.973Z,3.07
2019-04-07T13:01:47.057Z,3.13
2019-04-07T13:04:14.347Z,3.50
2019-04-07T13:06:45.241Z,3.10
2019-04-07T13:09:31.438Z,3.10
2019-04-07T13:12:08.273Z,2.97
2019-04-07T13:14:47.545Z,2.97
2019-04-07T13:17:37.828Z,2.40
2019-04-07T13:20:08.420Z,3.60
2019-04-07T13:22:36.722Z,3.27
2019-04-07T13:25:07.871Z,2.83
2019-04-07T13:27:41.880Z,3.00
2019-04-07T13:30:19.055Z,2.70
2019-04-07T13:32:52.419Z,2.93
2019-04-07T13:35:21.602Z,2.87
2019-04-07T13:37:50.097Z,3.07
2019-04-07T13:40:19.792Z,3.40
2019-04-07T13:43:00.707Z,3.13
2019-04-07T13:45:27.969Z,2.90
2019-04-07T13:48:00.326Z,3.10
2019-04-07T13:50:31.955Z,3.50
2019-04-07T13:53:15.074Z,3.13
2019-04-07T13:55:58.207Z,2.70
2019-04-07T13:58:42.879Z,2.20
2019-04-07T14:01:31.308Z,3.17
2019-04-07T14:04:06.796Z,2.73
2019-04-07T14:06:45.902Z,3.13
2019-04-07T14:09:14.725Z,2.80
2019-04-07T14:12:05.526Z,3.10
2019-04-07T14:14:34.404Z,3.03
2019-04-07T14:17:06.277Z,3.40
2019-04-07T14:19:37.357Z,2.70
2019-04-07T14:22:06.475Z,2.60
2019-04-07T14:24:47.253Z,3.23
2019-04-07T14:27:25.129Z,3.20
2019-04-07T14:30:02.860Z,3.03
2019-04-07T14:32:37.391Z,2.80
2019-04-07T14:35:08.338Z,3.20
2019-04-07T14:37:37.279Z,3.10
2019-04-07T14:40:20.409Z,2.80
2019-04-07T14:42:49.627Z,2.60
2019-04-07T14:45:35.191Z,3.07
2019-04-07T14:48:07.347Z,3.50
2019-04-07T14:50:52.655Z,3.00
2019-04-07T14:53:36.613Z,3.40
2019-04-07T14:56:07.717Z,3.50
2019-04-07T14:58:41.272Z,3.20
2019-04-07T15:01:09.460Z,3.20
2019-04-07T15:03:39.481Z,3.37
2019-04-07T15:06:09.818Z,2.50
2019-04-07T15:08:44.344Z,3.07
2019-04-07T15:11:29.849Z,3.23
2019-04-07T15:13:57.902Z,2.77
2019-04-07T15:16:24.383Z,3.43
2019-04-07T15:18:53.320Z,3.10
2019-04-07T15:21:20.032Z,2.83
2019-04-07T15:23:47.343Z,3.40
2019-04-07T15:26:16.674Z,3.33
2019-04-07T15:28:43.615Z,2.60
2019-04-07T15:31:11.720Z,3.17
2019-04-07T15:33:38.365Z,2.63
2019-04-07T15:36:07.679Z,2.40
2019-04-07T15:38:33.402Z,2.00
2019-04-07T15:41:00.943Z,2.30
2019-04-07T15:43:27.892Z,1.97
2019-04-07T15:45:54.656Z,1.57
2019-04-07T15:48:24.891Z,2.07
2019-04-07T15:50:49.619Z,1.80
2019-04-07T15:53:18.743Z,1.77
2019-04-07T15:55:50.974Z,2.10
2019-04-07T15:58:14.964Z,2.30
2019-04-07T16:00:41.996Z,2.17
2019-04-07T16:03:12.774Z,2.10
2019-04-07T16:05:42.042Z,2.30
2019-04-07T16:08:06.299Z,1.87
2019-04-07T16:10:32.697Z,1.93
2019-04-07T16:12:59.578Z,1.80
2019-04-07T16:15:27.190Z,2.70
2019-04-07T16:17:55.487Z,2.50
2019-04-07T16:20:25.090Z,2.17
2019-04-07T16:22:51.907Z,1.83
2019-04-07T16:25:22.721Z,2.40
2019-04-07T16:27:49.474Z,2.67
2019-04-07T16:30:19.029Z,3.80
2019-04-07T16:32:45.553Z,4.40
2019-04-07T16:35:14.936Z,3.47
2019-04-07T16:37:40.785Z,3.13
2019-04-07T16:40:10.378Z,3.43
2019-04-07T16:42:35.972Z,3.20
2019-04-07T16:45:03.272Z,3.10
2019-04-07T16:47:34.585Z,2.60
2019-04-07T16:49:58.715Z,2.40
2019-04-07T16:52:25.526Z,2.47
2019-04-07T16:54:52.676Z,2.07
2019-04-07T16:57:18.994Z,2.00
2019-04-07T16:59:45.372Z,1.80
2019-04-07T17:02:14.536Z,1.90
2019-04-07T17:04:41.625Z,1.77
2019-04-07T17:07:13.312Z,1.60
2019-04-07T17:09:37.454Z,1.90
2019-04-07T17:12:04.016Z,1.87
2019-04-07T17:14:34.440Z,1.63
2019-04-07T17:16:59.079Z,1.90
2019-04-07T17:19:27.286Z,1.60
2019-04-07T17:21:55.490Z,1.90
2019-04-07T17:24:24.928Z,1.60
2019-04-07T17:26:50.117Z,1.97
2019-04-07T17:29:19.029Z,1.43
2019-04-07T17:31:45.597Z,1.67
2019-04-07T17:34:13.426Z,1.70
2019-04-07T17:36:40.929Z,1.60
2019-04-07T17:39:15.610Z,1.50
2019-04-07T17:41:41.953Z,2.30
2019-04-07T17:44:24.479Z,1.90
2019-04-07T17:46:58.688Z,2.30
2019-04-07T17:49:44.441Z,2.40
2019-04-07T17:52:24.770Z,1.67
2019-04-07T17:55:00.066Z,2.03
2019-04-07T17:57:29.207Z,1.70
2019-04-07T17:59:58.272Z,2.10
2019-04-07T18:02:32.256Z,1.73
2019-04-07T18:05:12.680Z,2.37
2019-04-07T18:07:58.873Z,2.13
2019-04-07T18:10:33.489Z,2.20
2019-04-07T18:13:01.744Z,1.90
2019-04-07T18:15:43.413Z,2.77
2019-04-07T18:18:12.182Z,2.27
2019-04-07T18:20:41.382Z,2.30
2019-04-07T18:23:26.567Z,1.93
2019-04-07T18:25:55.517Z,1.90
2019-04-07T18:28:30.590Z,1.90
2019-04-07T18:31:02.890Z,1.70
2019-04-07T18:33:29.846Z,1.57
2019-04-07T18:36:07.963Z,2.00
2019-04-07T18:38:45.672Z,1.93
2019-04-07T18:41:14.593Z,2.00
2019-04-07T18:43:52.197Z,2.47
2019-04-07T18:46:34.979Z,2.23
2019-04-07T18:49:06.504Z,2.53
2019-04-07T18:51:40.251Z,1.93
2019-04-07T18:54:24.829Z,2.10
2019-04-07T18:56:54.558Z,3.10
2019-04-07T18:59:41.065Z,3.10
2019-04-07T19:02:13.172Z,2.63
2019-04-07T19:04:42.434Z,2.70
2019-04-07T19:07:16.685Z,2.50
2019-04-07T19:10:07.197Z,2.97
2019-04-07T19:12:28.086Z,2.93
2019-04-07T19:15:12.072Z,3.60
2019-04-07T19:17:43.372Z,3.10
2019-04-07T19:20:15.048Z,2.90
2019-04-07T19:22:43.358Z,3.07
2019-04-07T19:25:29.193Z,4.43
2019-04-07T19:28:03.491Z,3.70
2019-04-07T19:30:50.060Z,3.20
2019-04-07T19:33:17.487Z,2.93
2019-04-07T19:36:02.817Z,2.90
2019-04-07T19:38:36.676Z,2.50
2019-04-07T19:41:04.751Z,2.63
2019-04-07T19:43:35.089Z,2.83
2019-04-07T19:46:03.574Z,2.83
2019-04-07T19:48:39.070Z,2.37
2019-04-07T19:51:15.495Z,2.23
2019-04-07T19:53:45.330Z,2.53
2019-04-07T19:56:29.990Z,2.80
2019-04-07T19:58:58.470Z,2.93
2019-04-07T20:01:42.205Z,2.90
2019-04-07T20:04:12.667Z,2.57
2019-04-07T20:06:44.169Z,2.20
2019-04-07T20:09:30.034Z,2.03
2019-04-07T20:12:00.538Z,2.00
2019-04-07T20:14:51.971Z,1.73
2019-04-07T20:17:34.357Z,2.20
2019-04-07T20:20:19.509Z,1.73
2019-04-07T20:23:02.785Z,1.50
2019-04-07T20:25:37.582Z,1.73
2019-04-07T20:28:08.770Z,2.20
2019-04-07T20:30:37.819Z,3.00
2019-04-07T20:33:06.504Z,3.20
2019-04-07T20:35:35.024Z,4.37
2019-04-07T20:38:09.388Z,3.90
2019-04-07T20:40:44.065Z,3.50
2019-04-07T20:43:21.806Z,3.20
2019-04-07T20:46:04.618Z,2.90
2019-04-07T20:48:49.673Z,2.20
2019-04-07T20:51:18.993Z,2.50
2019-04-07T20:53:53.677Z,2.40
2019-04-07T20:56:36.874Z,2.07
2019-04-07T20:59:11.761Z,1.97
2019-04-07T21:01:42.941Z,2.43
2019-04-07T21:04:10.638Z,2.23
2019-04-07T21:06:48.094Z,2.00
2019-04-07T21:09:17.399Z,1.83
2019-04-07T21:12:02.937Z,1.97
2019-04-07T21:14:34.753Z,1.90
2019-04-07T21:17:07.414Z,1.93
2019-04-07T21:19:52.338Z,2.50
2019-04-07T21:22:23.893Z,1.90
2019-04-07T21:24:52.971Z,1.80
2019-04-07T21:27:28.394Z,1.50
2019-04-07T21:30:01.011Z,2.17
2019-04-07T21:32:29.334Z,1.73
2019-04-07T21:35:12.972Z,1.70
2019-04-07T21:37:45.056Z,1.70
2019-04-07T21:40:14.342Z,1.77
2019-04-07T21:42:45.816Z,2.87
2019-04-07T21:45:29.173Z,2.37
2019-04-07T21:47:46.845Z,4.00
2019-04-07T21:50:18.917Z,3.40
2019-04-07T21:52:54.711Z,3.63
2019-04-07T21:55:32.967Z,2.97
2019-04-07T21:58:16.646Z,2.03
2019-04-07T22:01:02.805Z,2.30
2019-04-07T22:03:49.256Z,1.80
2019-04-07T22:06:17.714Z,2.10
2019-04-07T22:08:47.142Z,1.77
2019-04-07T22:11:13.654Z,1.93
2019-04-07T22:13:40.761Z,1.87
2019-04-07T22:16:08.255Z,2.23
2019-04-07T22:18:37.415Z,4.63
2019-04-07T22:21:03.402Z,3.30
2019-04-07T22:23:31.506Z,4.30
2019-04-07T22:25:57.911Z,4.43
2019-04-07T22:28:27.741Z,3.60
2019-04-07T22:30:53.679Z,2.97
2019-04-07T22:33:22.883Z,3.10
2019-04-07T22:35:49.056Z,2.40
2019-04-07T22:38:19.713Z,2.40
2019-04-07T22:40:43.957Z,3.03
2019-04-07T22:43:10.224Z,3.40
2019-04-07T22:45:37.474Z,4.13
2019-04-07T22:48:03.710Z,5.80
2019-04-07T22:50:30.517Z,6.40
2019-04-07T22:52:58.309Z,6.67
2019-04-07T22:55:24.923Z,6.63
2019-04-07T22:57:51.614Z,7.33
2019-04-07T23:00:21.189Z,6.43
2019-04-07T23:02:49.850Z,4.73
2019-04-07T23:05:16.946Z,5.07
2019-04-07T23:07:43.814Z,4.43
2019-04-07T23:10:11.206Z,4.13
2019-04-07T23:12:38.181Z,4.43
2019-04-07T23:15:05.878Z,5.17
2019-04-07T23:17:32.280Z,4.30
2019-04-07T23:19:58.866Z,3.67
2019-04-07T23:22:25.661Z,3.60
2019-04-07T23:24:53.013Z,3.13
2019-04-07T23:27:20.056Z,4.37
2019-04-07T23:29:46.419Z,4.87
2019-04-07T23:32:12.838Z,5.50
2019-04-07T23:34:39.423Z,6.00
2019-04-07T23:37:06.099Z,6.07
2019-04-07T23:39:32.377Z,5.43
2019-04-07T23:41:58.750Z,4.93
2019-04-07T23:44:25.523Z,5.80
2019-04-07T23:46:52.846Z,5.20
2019-04-07T23:49:19.246Z,6.67
2019-04-07T23:51:45.606Z,6.53
2019-04-07T23:54:12.125Z,6.70
2019-04-07T23:56:39.798Z,5.30
2019-04-07T23:59:06.323Z,6.07
